sensor_id;sensor_type;location;lat;lon;timestamp;P1;durP1;ratioP1;P2;durP2;ratioP2
33254;SDS011;19623;52.482;9.762;2023-02-01T00:00:05;19.95;;;2.85;;
33254;SDS011;19623;52.482;9.762;2023-02-01T00:02:31;18.63;;;2.65;;
33254;SDS011;19623;52.482;9.762;2023-02-01T00:04:57;27.08;;;4.38;;
33254;SDS011;19623;52.482;9.762;2023-02-01T00:07:22;18.65;;;2.92;;
33254;SDS011;19623;52.482;9.762;2023-02-01T00:09:48;21.33;;;3.28;;
33254;SDS011;19623;52.482;9.762;2023-02-01T00:12:13;21.35;;;2.97;;
33254;SDS011;19623;52.482;9.762;2023-02-01T00:14:39;16.50;;;3.17;;
33254;SDS011;19623;52.482;9.762;2023-02-01T00:17:05;18.98;;;2.97;;
33254;SDS011;19623;52.482;9.762;2023-02-01T00:19:34;18.90;;;3.17;;
33254;SDS011;19623;52.482;9.762;2023-02-01T00:22:00;21.85;;;3.60;;
33254;SDS011;19623;52.482;9.762;2023-02-01T00:24:25;18.38;;;2.85;;
33254;SDS011;19623;52.482;9.762;2023-02-01T00:26:51;18.33;;;3.08;;
33254;SDS011;19623;52.482;9.762;2023-02-01T00:29:18;27.30;;;3.60;;
33254;SDS011;19623;52.482;9.762;2023-02-01T00:31:45;24.67;;;3.28;;
33254;SDS011;19623;52.482;9.762;2023-02-01T00:34:11;20.67;;;2.78;;
33254;SDS011;19623;52.482;9.762;2023-02-01T00:36:40;22.63;;;3.17;;
33254;SDS011;19623;52.482;9.762;2023-02-01T00:39:07;25.17;;;3.47;;
33254;SDS011;19623;52.482;9.762;2023-02-01T00:41:33;21.98;;;3.13;;
33254;SDS011;19623;52.482;9.762;2023-02-01T00:43:59;22.50;;;3.25;;
33254;SDS011;19623;52.482;9.762;2023-02-01T00:46:25;20.95;;;4.13;;
33254;SDS011;19623;52.482;9.762;2023-02-01T00:48:51;26.35;;;3.25;;
33254;SDS011;19623;52.482;9.762;2023-02-01T00:51:18;18.20;;;2.78;;
33254;SDS011;19623;52.482;9.762;2023-02-01T00:53:45;17.65;;;3.65;;
33254;SDS011;19623;52.482;9.762;2023-02-01T00:56:11;23.05;;;3.40;;
33254;SDS011;19623;52.482;9.762;2023-02-01T00:58:37;21.80;;;2.88;;
33254;SDS011;19623;52.482;9.762;2023-02-01T01:01:04;22.15;;;3.67;;
33254;SDS011;19623;52.482;9.762;2023-02-01T01:03:32;20.85;;;2.83;;
33254;SDS011;19623;52.482;9.762;2023-02-01T01:06:01;25.55;;;3.03;;
33254;SDS011;19623;52.482;9.762;2023-02-01T01:08:28;22.00;;;3.25;;
33254;SDS011;19623;52.482;9.762;2023-02-01T01:10:54;17.05;;;2.75;;
33254;SDS011;19623;52.482;9.762;2023-02-01T01:13:20;17.98;;;2.55;;
33254;SDS011;19623;52.482;9.762;2023-02-01T01:15:45;26.08;;;4.25;;
33254;SDS011;19623;52.482;9.762;2023-02-01T01:18:11;25.02;;;3.28;;
33254;SDS011;19623;52.482;9.762;2023-02-01T01:20:38;18.63;;;3.58;;
33254;SDS011;19623;52.482;9.762;2023-02-01T01:23:05;18.13;;;3.30;;
33254;SDS011;19623;52.482;9.762;2023-02-01T01:25:32;20.80;;;3.35;;
33254;SDS011;19623;52.482;9.762;2023-02-01T01:28:02;19.73;;;3.85;;
33254;SDS011;19623;52.482;9.762;2023-02-01T01:30:28;22.05;;;3.50;;
33254;SDS011;19623;52.482;9.762;2023-02-01T01:32:54;20.90;;;3.00;;
33254;SDS011;19623;52.482;9.762;2023-02-01T01:35:19;18.38;;;2.92;;
33254;SDS011;19623;52.482;9.762;2023-02-01T01:37:45;24.85;;;3.75;;
33254;SDS011;19623;52.482;9.762;2023-02-01T01:40:10;25.85;;;3.75;;
33254;SDS011;19623;52.482;9.762;2023-02-01T01:42:37;16.65;;;3.00;;
33254;SDS011;19623;52.482;9.762;2023-02-01T01:45:05;23.83;;;3.78;;
33254;SDS011;19623;52.482;9.762;2023-02-01T01:47:48;14.57;;;3.08;;
33254;SDS011;19623;52.482;9.762;2023-02-01T01:50:17;20.50;;;3.38;;
33254;SDS011;19623;52.482;9.762;2023-02-01T01:52:46;19.45;;;2.97;;
33254;SDS011;19623;52.482;9.762;2023-02-01T01:55:14;24.73;;;3.38;;
33254;SDS011;19623;52.482;9.762;2023-02-01T01:57:44;29.60;;;3.55;;
33254;SDS011;19623;52.482;9.762;2023-02-01T02:00:18;25.00;;;4.00;;
33254;SDS011;19623;52.482;9.762;2023-02-01T02:02:46;18.13;;;3.35;;
33254;SDS011;19623;52.482;9.762;2023-02-01T02:05:14;24.92;;;3.20;;
33254;SDS011;19623;52.482;9.762;2023-02-01T02:07:43;24.25;;;3.83;;
33254;SDS011;19623;52.482;9.762;2023-02-01T02:12:39;12.93;;;2.85;;
33254;SDS011;19623;52.482;9.762;2023-02-01T02:15:09;22.13;;;3.20;;
33254;SDS011;19623;52.482;9.762;2023-02-01T02:22:43;22.58;;;3.63;;
33254;SDS011;19623;52.482;9.762;2023-02-01T02:33:47;24.55;;;3.17;;
33254;SDS011;19623;52.482;9.762;2023-02-01T02:39:21;17.70;;;3.00;;
33254;SDS011;19623;52.482;9.762;2023-02-01T02:50:29;17.55;;;4.00;;
33254;SDS011;19623;52.482;9.762;2023-02-01T02:53:21;22.35;;;3.13;;
33254;SDS011;19623;52.482;9.762;2023-02-01T02:58:55;25.40;;;3.78;;
33254;SDS011;19623;52.482;9.762;2023-02-01T03:01:41;19.85;;;3.13;;
33254;SDS011;19623;52.482;9.762;2023-02-01T03:04:26;16.77;;;3.25;;
33254;SDS011;19623;52.482;9.762;2023-02-01T03:06:52;15.40;;;3.33;;
33254;SDS011;19623;52.482;9.762;2023-02-01T03:09:26;23.13;;;2.83;;
33254;SDS011;19623;52.482;9.762;2023-02-01T03:12:00;24.08;;;2.95;;
33254;SDS011;19623;52.482;9.762;2023-02-01T03:14:48;19.98;;;2.85;;
33254;SDS011;19623;52.482;9.762;2023-02-01T03:17:19;21.77;;;2.72;;
33254;SDS011;19623;52.482;9.762;2023-02-01T03:19:51;21.13;;;3.38;;
33254;SDS011;19623;52.482;9.762;2023-02-01T03:22:20;21.98;;;2.88;;
33254;SDS011;19623;52.482;9.762;2023-02-01T03:27:17;23.10;;;3.75;;
33254;SDS011;19623;52.482;9.762;2023-02-01T03:29:51;27.80;;;4.18;;
33254;SDS011;19623;52.482;9.762;2023-02-01T03:32:33;14.52;;;3.03;;
33254;SDS011;19623;52.482;9.762;2023-02-01T03:35:23;24.05;;;4.90;;
33254;SDS011;19623;52.482;9.762;2023-02-01T03:37:56;18.90;;;2.78;;
33254;SDS011;19623;52.482;9.762;2023-02-01T03:40:37;20.30;;;3.22;;
33254;SDS011;19623;52.482;9.762;2023-02-01T03:43:06;25.42;;;3.17;;
33254;SDS011;19623;52.482;9.762;2023-02-01T03:45:41;22.95;;;3.72;;
33254;SDS011;19623;52.482;9.762;2023-02-01T03:48:11;18.15;;;3.38;;
33254;SDS011;19623;52.482;9.762;2023-02-01T03:50:39;24.20;;;3.47;;
33254;SDS011;19623;52.482;9.762;2023-02-01T03:53:12;12.35;;;2.33;;
33254;SDS011;19623;52.482;9.762;2023-02-01T03:55:41;15.83;;;2.83;;
33254;SDS011;19623;52.482;9.762;2023-02-01T04:00:43;20.55;;;3.10;;
33254;SDS011;19623;52.482;9.762;2023-02-01T04:03:11;18.15;;;2.95;;
33254;SDS011;19623;52.482;9.762;2023-02-01T04:05:36;23.20;;;3.08;;
33254;SDS011;19623;52.482;9.762;2023-02-01T04:08:02;23.00;;;3.33;;
33254;SDS011;19623;52.482;9.762;2023-02-01T04:10:30;28.08;;;4.07;;
33254;SDS011;19623;52.482;9.762;2023-02-01T04:12:55;14.93;;;3.03;;
33254;SDS011;19623;52.482;9.762;2023-02-01T04:15:21;13.45;;;2.95;;
33254;SDS011;19623;52.482;9.762;2023-02-01T04:17:47;14.25;;;2.55;;
33254;SDS011;19623;52.482;9.762;2023-02-01T04:20:12;16.70;;;2.95;;
33254;SDS011;19623;52.482;9.762;2023-02-01T04:22:38;18.40;;;3.10;;
33254;SDS011;19623;52.482;9.762;2023-02-01T04:25:04;17.95;;;3.53;;
33254;SDS011;19623;52.482;9.762;2023-02-01T04:27:30;20.33;;;3.35;;
33254;SDS011;19623;52.482;9.762;2023-02-01T04:29:56;12.73;;;3.10;;
33254;SDS011;19623;52.482;9.762;2023-02-01T04:32:22;21.55;;;3.70;;
33254;SDS011;19623;52.482;9.762;2023-02-01T04:34:47;19.27;;;2.80;;
33254;SDS011;19623;52.482;9.762;2023-02-01T04:37:13;14.32;;;3.35;;
33254;SDS011;19623;52.482;9.762;2023-02-01T04:39:39;16.10;;;3.25;;
33254;SDS011;19623;52.482;9.762;2023-02-01T04:42:04;19.92;;;2.83;;
33254;SDS011;19623;52.482;9.762;2023-02-01T04:44:30;15.23;;;3.13;;
33254;SDS011;19623;52.482;9.762;2023-02-01T04:46:55;22.48;;;3.88;;
33254;SDS011;19623;52.482;9.762;2023-02-01T04:49:21;22.83;;;3.53;;
33254;SDS011;19623;52.482;9.762;2023-02-01T04:51:47;19.23;;;3.70;;
33254;SDS011;19623;52.482;9.762;2023-02-01T04:54:13;28.60;;;3.92;;
33254;SDS011;19623;52.482;9.762;2023-02-01T04:56:39;22.55;;;3.28;;
33254;SDS011;19623;52.482;9.762;2023-02-01T04:59:05;14.77;;;3.08;;
33254;SDS011;19623;52.482;9.762;2023-02-01T05:01:31;24.48;;;3.70;;
33254;SDS011;19623;52.482;9.762;2023-02-01T05:03:57;16.83;;;3.03;;
33254;SDS011;19623;52.482;9.762;2023-02-01T05:06:23;14.00;;;2.63;;
33254;SDS011;19623;52.482;9.762;2023-02-01T05:08:48;17.35;;;2.80;;
33254;SDS011;19623;52.482;9.762;2023-02-01T05:11:14;15.73;;;2.78;;
33254;SDS011;19623;52.482;9.762;2023-02-01T05:13:59;19.05;;;2.80;;
33254;SDS011;19623;52.482;9.762;2023-02-01T05:16:25;20.70;;;3.35;;
33254;SDS011;19623;52.482;9.762;2023-02-01T05:18:51;21.60;;;3.45;;
33254;SDS011;19623;52.482;9.762;2023-02-01T05:21:18;14.10;;;3.15;;
33254;SDS011;19623;52.482;9.762;2023-02-01T05:23:43;14.77;;;3.28;;
33254;SDS011;19623;52.482;9.762;2023-02-01T05:26:28;18.80;;;3.42;;
33254;SDS011;19623;52.482;9.762;2023-02-01T05:28:53;23.67;;;3.22;;
33254;SDS011;19623;52.482;9.762;2023-02-01T05:31:19;16.23;;;2.90;;
33254;SDS011;19623;52.482;9.762;2023-02-01T05:33:45;16.40;;;2.95;;
33254;SDS011;19623;52.482;9.762;2023-02-01T05:36:10;12.93;;;3.53;;
33254;SDS011;19623;52.482;9.762;2023-02-01T05:38:36;14.13;;;3.00;;
33254;SDS011;19623;52.482;9.762;2023-02-01T05:41:02;16.95;;;3.45;;
33254;SDS011;19623;52.482;9.762;2023-02-01T05:43:27;20.98;;;3.50;;
33254;SDS011;19623;52.482;9.762;2023-02-01T05:45:53;17.83;;;3.28;;
33254;SDS011;19623;52.482;9.762;2023-02-01T05:48:18;14.18;;;3.08;;
33254;SDS011;19623;52.482;9.762;2023-02-01T05:50:44;12.60;;;2.75;;
33254;SDS011;19623;52.482;9.762;2023-02-01T05:53:10;17.45;;;3.28;;
33254;SDS011;19623;52.482;9.762;2023-02-01T05:55:36;18.33;;;2.75;;
33254;SDS011;19623;52.482;9.762;2023-02-01T05:58:02;19.33;;;3.10;;
33254;SDS011;19623;52.482;9.762;2023-02-01T06:00:28;17.85;;;3.25;;
33254;SDS011;19623;52.482;9.762;2023-02-01T06:02:54;22.25;;;3.83;;
33254;SDS011;19623;52.482;9.762;2023-02-01T06:05:20;17.27;;;3.67;;
33254;SDS011;19623;52.482;9.762;2023-02-01T06:07:46;14.70;;;3.15;;
33254;SDS011;19623;52.482;9.762;2023-02-01T06:10:11;16.85;;;3.30;;
33254;SDS011;19623;52.482;9.762;2023-02-01T06:12:38;13.45;;;2.92;;
33254;SDS011;19623;52.482;9.762;2023-02-01T06:15:04;23.50;;;4.07;;
33254;SDS011;19623;52.482;9.762;2023-02-01T06:17:30;20.00;;;3.72;;
33254;SDS011;19623;52.482;9.762;2023-02-01T06:19:56;13.18;;;2.90;;
33254;SDS011;19623;52.482;9.762;2023-02-01T06:22:21;16.88;;;3.75;;
33254;SDS011;19623;52.482;9.762;2023-02-01T06:24:47;16.20;;;3.03;;
33254;SDS011;19623;52.482;9.762;2023-02-01T06:27:13;17.52;;;3.38;;
33254;SDS011;19623;52.482;9.762;2023-02-01T06:29:39;21.42;;;3.97;;
33254;SDS011;19623;52.482;9.762;2023-02-01T06:32:05;13.27;;;3.42;;
33254;SDS011;19623;52.482;9.762;2023-02-01T06:34:31;12.73;;;3.20;;
33254;SDS011;19623;52.482;9.762;2023-02-01T06:36:56;17.27;;;3.00;;
33254;SDS011;19623;52.482;9.762;2023-02-01T06:39:22;15.20;;;3.05;;
33254;SDS011;19623;52.482;9.762;2023-02-01T06:41:48;12.13;;;3.13;;
33254;SDS011;19623;52.482;9.762;2023-02-01T06:44:15;13.73;;;2.72;;
33254;SDS011;19623;52.482;9.762;2023-02-01T06:46:41;12.52;;;2.53;;
33254;SDS011;19623;52.482;9.762;2023-02-01T06:49:07;20.92;;;3.55;;
33254;SDS011;19623;52.482;9.762;2023-02-01T06:51:33;11.45;;;2.58;;
33254;SDS011;19623;52.482;9.762;2023-02-01T06:53:59;13.80;;;2.53;;
33254;SDS011;19623;52.482;9.762;2023-02-01T06:56:25;13.18;;;3.03;;
33254;SDS011;19623;52.482;9.762;2023-02-01T06:58:51;13.60;;;2.72;;
33254;SDS011;19623;52.482;9.762;2023-02-01T07:01:17;17.88;;;3.15;;
33254;SDS011;19623;52.482;9.762;2023-02-01T07:03:46;15.52;;;2.70;;
33254;SDS011;19623;52.482;9.762;2023-02-01T07:06:12;16.08;;;2.83;;
33254;SDS011;19623;52.482;9.762;2023-02-01T07:08:38;6.88;;;2.25;;
33254;SDS011;19623;52.482;9.762;2023-02-01T07:11:04;21.13;;;3.30;;
33254;SDS011;19623;52.482;9.762;2023-02-01T07:13:32;12.38;;;2.55;;
33254;SDS011;19623;52.482;9.762;2023-02-01T07:15:59;14.82;;;2.88;;
33254;SDS011;19623;52.482;9.762;2023-02-01T07:18:26;16.40;;;3.40;;
33254;SDS011;19623;52.482;9.762;2023-02-01T07:20:52;9.48;;;3.13;;
33254;SDS011;19623;52.482;9.762;2023-02-01T07:23:18;17.35;;;2.80;;
33254;SDS011;19623;52.482;9.762;2023-02-01T07:25:45;14.00;;;3.03;;
33254;SDS011;19623;52.482;9.762;2023-02-01T07:28:11;22.52;;;3.53;;
33254;SDS011;19623;52.482;9.762;2023-02-01T07:30:36;13.30;;;3.10;;
33254;SDS011;19623;52.482;9.762;2023-02-01T07:33:02;16.52;;;3.65;;
33254;SDS011;19623;52.482;9.762;2023-02-01T07:35:28;23.75;;;4.00;;
33254;SDS011;19623;52.482;9.762;2023-02-01T07:37:54;17.52;;;3.13;;
33254;SDS011;19623;52.482;9.762;2023-02-01T07:40:19;20.48;;;3.38;;
33254;SDS011;19623;52.482;9.762;2023-02-01T07:42:50;11.57;;;2.70;;
33254;SDS011;19623;52.482;9.762;2023-02-01T07:45:15;17.33;;;3.30;;
33254;SDS011;19623;52.482;9.762;2023-02-01T07:47:41;14.65;;;3.40;;
33254;SDS011;19623;52.482;9.762;2023-02-01T07:50:07;18.27;;;3.08;;
33254;SDS011;19623;52.482;9.762;2023-02-01T07:52:33;14.05;;;3.13;;
33254;SDS011;19623;52.482;9.762;2023-02-01T07:54:58;24.73;;;3.10;;
33254;SDS011;19623;52.482;9.762;2023-02-01T07:57:24;19.38;;;3.65;;
33254;SDS011;19623;52.482;9.762;2023-02-01T07:59:49;17.27;;;2.78;;
33254;SDS011;19623;52.482;9.762;2023-02-01T08:02:34;19.23;;;3.28;;
33254;SDS011;19623;52.482;9.762;2023-02-01T08:04:59;30.52;;;3.78;;
33254;SDS011;19623;52.482;9.762;2023-02-01T08:07:25;20.13;;;2.83;;
33254;SDS011;19623;52.482;9.762;2023-02-01T08:09:51;18.08;;;2.67;;
33254;SDS011;19623;52.482;9.762;2023-02-01T08:12:16;20.88;;;2.70;;
33254;SDS011;19623;52.482;9.762;2023-02-01T08:14:42;12.18;;;2.97;;
33254;SDS011;19623;52.482;9.762;2023-02-01T08:17:07;18.38;;;3.35;;
33254;SDS011;19623;52.482;9.762;2023-02-01T08:19:33;14.85;;;2.75;;
33254;SDS011;19623;52.482;9.762;2023-02-01T08:21:59;16.95;;;2.80;;
33254;SDS011;19623;52.482;9.762;2023-02-01T08:24:26;25.67;;;3.45;;
33254;SDS011;19623;52.482;9.762;2023-02-01T08:26:52;18.95;;;3.22;;
33254;SDS011;19623;52.482;9.762;2023-02-01T08:29:18;18.83;;;2.70;;
33254;SDS011;19623;52.482;9.762;2023-02-01T08:31:43;9.18;;;2.15;;
33254;SDS011;19623;52.482;9.762;2023-02-01T08:34:09;14.23;;;2.50;;
33254;SDS011;19623;52.482;9.762;2023-02-01T08:36:37;26.67;;;3.92;;
33254;SDS011;19623;52.482;9.762;2023-02-01T08:39:03;23.58;;;2.70;;
33254;SDS011;19623;52.482;9.762;2023-02-01T08:41:33;18.77;;;3.08;;
33254;SDS011;19623;52.482;9.762;2023-02-01T08:43:59;18.00;;;3.00;;
33254;SDS011;19623;52.482;9.762;2023-02-01T08:46:25;16.13;;;3.42;;
33254;SDS011;19623;52.482;9.762;2023-02-01T08:48:51;12.60;;;3.17;;
33254;SDS011;19623;52.482;9.762;2023-02-01T08:51:18;9.85;;;2.20;;
33254;SDS011;19623;52.482;9.762;2023-02-01T08:53:45;13.55;;;3.30;;
33254;SDS011;19623;52.482;9.762;2023-02-01T08:56:12;18.02;;;2.35;;
33254;SDS011;19623;52.482;9.762;2023-02-01T08:58:39;16.10;;;2.85;;
33254;SDS011;19623;52.482;9.762;2023-02-01T09:01:09;17.58;;;2.63;;
33254;SDS011;19623;52.482;9.762;2023-02-01T09:03:37;16.73;;;2.40;;
33254;SDS011;19623;52.482;9.762;2023-02-01T09:06:03;10.57;;;2.22;;
33254;SDS011;19623;52.482;9.762;2023-02-01T09:08:30;22.13;;;3.17;;
33254;SDS011;19623;52.482;9.762;2023-02-01T09:11:01;11.65;;;2.65;;
33254;SDS011;19623;52.482;9.762;2023-02-01T09:13:28;13.57;;;2.97;;
33254;SDS011;19623;52.482;9.762;2023-02-01T09:15:54;11.73;;;2.05;;
33254;SDS011;19623;52.482;9.762;2023-02-01T09:18:20;17.65;;;2.42;;
33254;SDS011;19623;52.482;9.762;2023-02-01T09:20:45;18.50;;;2.67;;
33254;SDS011;19623;52.482;9.762;2023-02-01T09:23:11;12.93;;;2.35;;
33254;SDS011;19623;52.482;9.762;2023-02-01T09:25:37;14.68;;;2.67;;
33254;SDS011;19623;52.482;9.762;2023-02-01T09:28:03;18.38;;;2.45;;
33254;SDS011;19623;52.482;9.762;2023-02-01T09:30:31;14.18;;;2.88;;
33254;SDS011;19623;52.482;9.762;2023-02-01T09:32:58;18.60;;;2.15;;
33254;SDS011;19623;52.482;9.762;2023-02-01T09:35:23;14.75;;;3.05;;
33254;SDS011;19623;52.482;9.762;2023-02-01T09:37:49;12.57;;;2.47;;
33254;SDS011;19623;52.482;9.762;2023-02-01T09:40:15;17.35;;;2.72;;
33254;SDS011;19623;52.482;9.762;2023-02-01T09:43:05;13.13;;;2.40;;
33254;SDS011;19623;52.482;9.762;2023-02-01T09:48:20;9.73;;;2.33;;
33254;SDS011;19623;52.482;9.762;2023-02-01T09:50:56;12.82;;;1.85;;
33254;SDS011;19623;52.482;9.762;2023-02-01T09:53:34;13.80;;;2.75;;
33254;SDS011;19623;52.482;9.762;2023-02-01T09:56:24;15.82;;;2.40;;
33254;SDS011;19623;52.482;9.762;2023-02-01T09:58:53;15.82;;;2.67;;
33254;SDS011;19623;52.482;9.762;2023-02-01T10:01:25;14.65;;;3.00;;
33254;SDS011;19623;52.482;9.762;2023-02-01T10:03:54;12.82;;;2.58;;
33254;SDS011;19623;52.482;9.762;2023-02-01T10:14:57;15.00;;;3.60;;
33254;SDS011;19623;52.482;9.762;2023-02-01T10:18:00;16.35;;;2.70;;
33254;SDS011;19623;52.482;9.762;2023-02-01T10:20:43;10.93;;;2.80;;
33254;SDS011;19623;52.482;9.762;2023-02-01T10:26:20;10.48;;;2.55;;
33254;SDS011;19623;52.482;9.762;2023-02-01T10:28:49;15.38;;;2.88;;
33254;SDS011;19623;52.482;9.762;2023-02-01T10:31:21;15.43;;;2.50;;
33254;SDS011;19623;52.482;9.762;2023-02-01T10:34:00;18.17;;;2.47;;
33254;SDS011;19623;52.482;9.762;2023-02-01T10:36:41;14.65;;;2.38;;
33254;SDS011;19623;52.482;9.762;2023-02-01T10:39:14;11.55;;;2.95;;
33254;SDS011;19623;52.482;9.762;2023-02-01T10:41:41;19.67;;;3.33;;
33254;SDS011;19623;52.482;9.762;2023-02-01T10:44:12;10.98;;;2.65;;
33254;SDS011;19623;52.482;9.762;2023-02-01T10:46:40;13.60;;;2.47;;
33254;SDS011;19623;52.482;9.762;2023-02-01T10:49:13;15.40;;;3.20;;
33254;SDS011;19623;52.482;9.762;2023-02-01T10:52:06;12.93;;;2.22;;
33254;SDS011;19623;52.482;9.762;2023-02-01T10:54:45;23.15;;;3.17;;
33254;SDS011;19623;52.482;9.762;2023-02-01T10:57:24;15.23;;;2.47;;
33254;SDS011;19623;52.482;9.762;2023-02-01T10:59:54;18.67;;;2.75;;
33254;SDS011;19623;52.482;9.762;2023-02-01T11:05:01;16.23;;;2.67;;
33254;SDS011;19623;52.482;9.762;2023-02-01T11:07:30;14.45;;;3.17;;
33254;SDS011;19623;52.482;9.762;2023-02-01T11:09:57;11.75;;;2.47;;
33254;SDS011;19623;52.482;9.762;2023-02-01T11:12:25;13.02;;;2.58;;
33254;SDS011;19623;52.482;9.762;2023-02-01T11:14:58;16.38;;;2.42;;
33254;SDS011;19623;52.482;9.762;2023-02-01T11:17:29;12.70;;;2.78;;
33254;SDS011;19623;52.482;9.762;2023-02-01T11:20:00;13.40;;;2.35;;
33254;SDS011;19623;52.482;9.762;2023-02-01T11:22:27;19.77;;;2.72;;
33254;SDS011;19623;52.482;9.762;2023-02-01T11:24:57;15.10;;;2.47;;
33254;SDS011;19623;52.482;9.762;2023-02-01T11:27:26;17.25;;;2.80;;
33254;SDS011;19623;52.482;9.762;2023-02-01T11:29:54;20.67;;;3.25;;
33254;SDS011;19623;52.482;9.762;2023-02-01T11:32:23;13.48;;;2.40;;
33254;SDS011;19623;52.482;9.762;2023-02-01T11:34:55;12.70;;;2.58;;
33254;SDS011;19623;52.482;9.762;2023-02-01T11:37:28;12.25;;;2.47;;
33254;SDS011;19623;52.482;9.762;2023-02-01T11:40:41;10.38;;;2.38;;
33254;SDS011;19623;52.482;9.762;2023-02-01T11:42:56;14.93;;;2.50;;
33254;SDS011;19623;52.482;9.762;2023-02-01T11:45:27;15.25;;;2.65;;
33254;SDS011;19623;52.482;9.762;2023-02-01T11:47:59;12.70;;;1.70;;
33254;SDS011;19623;52.482;9.762;2023-02-01T11:53:03;12.70;;;2.17;;
33254;SDS011;19623;52.482;9.762;2023-02-01T11:58:31;10.15;;;2.22;;
33254;SDS011;19623;52.482;9.762;2023-02-01T12:06:39;17.45;;;2.10;;
33254;SDS011;19623;52.482;9.762;2023-02-01T12:11:57;21.60;;;3.83;;
33254;SDS011;19623;52.482;9.762;2023-02-01T12:22:08;16.05;;;3.25;;
33254;SDS011;19623;52.482;9.762;2023-02-01T12:41:50;12.85;;;2.05;;
33254;SDS011;19623;52.482;9.762;2023-02-01T12:55:17;13.30;;;2.42;;
33254;SDS011;19623;52.482;9.762;2023-02-01T12:58:14;16.50;;;2.60;;
33254;SDS011;19623;52.482;9.762;2023-02-01T13:00:58;6.03;;;2.22;;
33254;SDS011;19623;52.482;9.762;2023-02-01T13:08:38;10.70;;;2.60;;
33254;SDS011;19623;52.482;9.762;2023-02-01T13:11:47;8.98;;;2.15;;
33254;SDS011;19623;52.482;9.762;2023-02-01T13:17:24;10.48;;;2.00;;
33254;SDS011;19623;52.482;9.762;2023-02-01T13:20:05;8.57;;;1.98;;
33254;SDS011;19623;52.482;9.762;2023-02-01T13:23:34;12.70;;;2.30;;
33254;SDS011;19623;52.482;9.762;2023-02-01T13:26:07;7.80;;;1.88;;
33254;SDS011;19623;52.482;9.762;2023-02-01T13:42:17;1.95;;;0.57;;
33254;SDS011;19623;52.482;9.762;2023-02-01T13:44:58;0.65;;;0.60;;
33254;SDS011;19623;52.482;9.762;2023-02-01T13:47:34;3.65;;;0.70;;
33254;SDS011;19623;52.482;9.762;2023-02-01T13:52:57;1.23;;;0.40;;
33254;SDS011;19623;52.482;9.762;2023-02-01T13:58:03;1.30;;;0.45;;
33254;SDS011;19623;52.482;9.762;2023-02-01T14:00:49;2.42;;;0.70;;
33254;SDS011;19623;52.482;9.762;2023-02-01T14:11:05;1.80;;;0.50;;
33254;SDS011;19623;52.482;9.762;2023-02-01T14:13:40;1.08;;;0.60;;
33254;SDS011;19623;52.482;9.762;2023-02-01T14:16:13;2.10;;;0.85;;
33254;SDS011;19623;52.482;9.762;2023-02-01T14:21:22;5.35;;;1.05;;
33254;SDS011;19623;52.482;9.762;2023-02-01T14:29:19;0.95;;;0.60;;
33254;SDS011;19623;52.482;9.762;2023-02-01T14:32:02;1.17;;;0.70;;
33254;SDS011;19623;52.482;9.762;2023-02-01T14:34:48;2.25;;;0.75;;
33254;SDS011;19623;52.482;9.762;2023-02-01T15:01:26;6.18;;;1.25;;
33254;SDS011;19623;52.482;9.762;2023-02-01T15:06:47;3.50;;;1.27;;
33254;SDS011;19623;52.482;9.762;2023-02-01T15:09:24;3.33;;;0.73;;
33254;SDS011;19623;52.482;9.762;2023-02-01T15:12:24;3.30;;;0.98;;
33254;SDS011;19623;52.482;9.762;2023-02-01T15:15:10;7.05;;;1.08;;
33254;SDS011;19623;52.482;9.762;2023-02-01T15:17:50;2.78;;;0.90;;
33254;SDS011;19623;52.482;9.762;2023-02-01T15:20:25;3.38;;;0.90;;
33254;SDS011;19623;52.482;9.762;2023-02-01T15:22:57;3.67;;;1.17;;
33254;SDS011;19623;52.482;9.762;2023-02-01T15:25:34;3.13;;;1.00;;
33254;SDS011;19623;52.482;9.762;2023-02-01T15:28:03;5.45;;;1.10;;
33254;SDS011;19623;52.482;9.762;2023-02-01T15:30:31;4.05;;;1.30;;
33254;SDS011;19623;52.482;9.762;2023-02-01T15:35:42;6.30;;;1.13;;
33254;SDS011;19623;52.482;9.762;2023-02-01T15:38:30;9.48;;;1.50;;
33254;SDS011;19623;52.482;9.762;2023-02-01T15:41:02;7.35;;;1.40;;
33254;SDS011;19623;52.482;9.762;2023-02-01T15:43:29;7.85;;;1.70;;
33254;SDS011;19623;52.482;9.762;2023-02-01T15:46:02;12.30;;;1.92;;
33254;SDS011;19623;52.482;9.762;2023-02-01T15:51:00;11.20;;;1.52;;
33254;SDS011;19623;52.482;9.762;2023-02-01T15:53:26;3.92;;;1.38;;
33254;SDS011;19623;52.482;9.762;2023-02-01T15:56:00;10.55;;;1.75;;
33254;SDS011;19623;52.482;9.762;2023-02-01T15:58:28;13.38;;;1.65;;
33254;SDS011;19623;52.482;9.762;2023-02-01T16:00:57;7.68;;;1.73;;
33254;SDS011;19623;52.482;9.762;2023-02-01T16:05:56;7.55;;;1.83;;
33254;SDS011;19623;52.482;9.762;2023-02-01T16:08:25;8.20;;;1.52;;
33254;SDS011;19623;52.482;9.762;2023-02-01T16:10:54;15.23;;;1.70;;
33254;SDS011;19623;52.482;9.762;2023-02-01T16:13:25;6.68;;;1.83;;
33254;SDS011;19623;52.482;9.762;2023-02-01T16:15:51;10.05;;;1.92;;
33254;SDS011;19623;52.482;9.762;2023-02-01T16:18:17;8.18;;;1.67;;
33254;SDS011;19623;52.482;9.762;2023-02-01T16:20:45;9.23;;;2.25;;
33254;SDS011;19623;52.482;9.762;2023-02-01T16:23:12;9.60;;;1.80;;
33254;SDS011;19623;52.482;9.762;2023-02-01T16:25:38;15.15;;;2.70;;
33254;SDS011;19623;52.482;9.762;2023-02-01T16:28:04;11.50;;;2.92;;
33254;SDS011;19623;52.482;9.762;2023-02-01T16:30:30;13.98;;;2.40;;
33254;SDS011;19623;52.482;9.762;2023-02-01T16:32:56;11.90;;;2.20;;
33254;SDS011;19623;52.482;9.762;2023-02-01T16:35:31;12.43;;;2.60;;
33254;SDS011;19623;52.482;9.762;2023-02-01T16:38:01;12.00;;;2.70;;
33254;SDS011;19623;52.482;9.762;2023-02-01T16:40:33;13.40;;;2.58;;
33254;SDS011;19623;52.482;9.762;2023-02-01T16:43:00;10.85;;;2.20;;
33254;SDS011;19623;52.482;9.762;2023-02-01T16:45:25;13.63;;;2.58;;
33254;SDS011;19623;52.482;9.762;2023-02-01T16:47:52;12.85;;;2.70;;
33254;SDS011;19623;52.482;9.762;2023-02-01T16:50:24;16.65;;;3.05;;
33254;SDS011;19623;52.482;9.762;2023-02-01T16:52:51;14.95;;;3.03;;
33254;SDS011;19623;52.482;9.762;2023-02-01T16:55:18;16.13;;;2.33;;
33254;SDS011;19623;52.482;9.762;2023-02-01T16:57:46;8.85;;;1.80;;
33254;SDS011;19623;52.482;9.762;2023-02-01T17:00:12;15.63;;;2.78;;
33254;SDS011;19623;52.482;9.762;2023-02-01T17:02:40;6.97;;;2.63;;
33254;SDS011;19623;52.482;9.762;2023-02-01T17:05:07;10.18;;;2.65;;
33254;SDS011;19623;52.482;9.762;2023-02-01T17:07:34;19.92;;;3.88;;
33254;SDS011;19623;52.482;9.762;2023-02-01T17:10:01;16.85;;;3.15;;
33254;SDS011;19623;52.482;9.762;2023-02-01T17:12:29;12.18;;;2.42;;
33254;SDS011;19623;52.482;9.762;2023-02-01T17:14:56;12.13;;;2.50;;
33254;SDS011;19623;52.482;9.762;2023-02-01T17:17:22;16.60;;;2.30;;
33254;SDS011;19623;52.482;9.762;2023-02-01T17:19:50;12.32;;;1.95;;
33254;SDS011;19623;52.482;9.762;2023-02-01T17:22:21;21.63;;;2.90;;
33254;SDS011;19623;52.482;9.762;2023-02-01T17:24:48;20.35;;;2.10;;
33254;SDS011;19623;52.482;9.762;2023-02-01T17:27:15;15.35;;;2.10;;
33254;SDS011;19623;52.482;9.762;2023-02-01T17:29:42;18.50;;;3.10;;
33254;SDS011;19623;52.482;9.762;2023-02-01T17:32:19;13.98;;;2.58;;
33254;SDS011;19623;52.482;9.762;2023-02-01T17:34:47;15.65;;;2.40;;
33254;SDS011;19623;52.482;9.762;2023-02-01T17:37:27;23.00;;;2.50;;
33254;SDS011;19623;52.482;9.762;2023-02-01T17:39:54;12.95;;;2.45;;
33254;SDS011;19623;52.482;9.762;2023-02-01T17:42:20;25.98;;;3.20;;
33254;SDS011;19623;52.482;9.762;2023-02-01T17:44:48;17.85;;;2.80;;
33254;SDS011;19623;52.482;9.762;2023-02-01T17:49:43;16.90;;;2.78;;
33254;SDS011;19623;52.482;9.762;2023-02-01T17:52:13;18.73;;;2.80;;